createdAt,value
2018-02-02T00:00:10.894Z,4.18
2018-02-02T00:02:03.788Z,4.22
2018-02-02T00:03:03.836Z,4.23
2018-02-02T00:04:56.714Z,4.09
2018-02-02T00:05:56.711Z,4.14
2018-02-02T00:07:49.623Z,4.15
2018-02-02T00:08:49.619Z,4.14
2018-02-02T00:10:42.523Z,4.20
2018-02-02T00:11:42.538Z,4.20
2018-02-02T00:13:35.447Z,4.29
2018-02-02T00:14:35.458Z,4.36
2018-02-02T00:16:28.344Z,4.29
2018-02-02T00:17:28.353Z,4.29
2018-02-02T00:19:21.260Z,4.27
2018-02-02T00:20:21.260Z,4.27
2018-02-02T00:22:14.154Z,4.32
2018-02-02T00:23:14.166Z,4.33
2018-02-02T00:25:07.076Z,4.34
2018-02-02T00:26:07.072Z,4.32
2018-02-02T00:27:59.981Z,4.32
2018-02-02T00:28:59.977Z,4.29
2018-02-02T00:30:52.870Z,4.34
2018-02-02T00:31:52.884Z,4.34
2018-02-02T00:33:45.795Z,4.40
2018-02-02T00:34:45.792Z,4.45
2018-02-02T00:36:38.686Z,4.41
2018-02-02T00:37:38.699Z,4.41
2018-02-02T00:39:31.610Z,4.41
2018-02-02T00:40:31.607Z,4.52
2018-02-02T00:42:24.503Z,4.48
2018-02-02T00:43:24.518Z,4.44
2018-02-02T00:45:17.428Z,4.54
2018-02-02T00:46:17.423Z,4.51
2018-02-02T00:48:10.335Z,4.44
2018-02-02T00:49:10.332Z,4.51
2018-02-02T00:51:04.223Z,4.50
2018-02-02T00:52:04.243Z,4.48
2018-02-02T00:53:57.148Z,4.51
2018-02-02T00:54:57.145Z,4.55
2018-02-02T00:56:50.045Z,4.55
2018-02-02T00:57:50.058Z,4.47
2018-02-02T00:59:42.968Z,4.52
2018-02-02T01:00:42.964Z,4.58
2018-02-02T01:02:35.863Z,4.54
2018-02-02T01:03:35.880Z,4.54
2018-02-02T01:05:28.792Z,4.55
2018-02-02T01:06:28.789Z,4.60
2018-02-02T01:08:21.700Z,4.58
2018-02-02T01:09:21.697Z,4.59
2018-02-02T01:11:14.595Z,4.54
2018-02-02T01:12:14.613Z,4.59
2018-02-02T01:14:07.521Z,4.55
2018-02-02T01:15:07.517Z,4.59
2018-02-02T01:17:00.414Z,4.60
2018-02-02T01:18:00.427Z,4.58
2018-02-02T01:19:53.339Z,4.65
2018-02-02T01:20:53.336Z,4.60
2018-02-02T01:22:46.235Z,4.70
2018-02-02T01:23:46.246Z,4.69
2018-02-02T01:25:39.158Z,4.70
2018-02-02T01:26:39.155Z,4.73
2018-02-02T01:28:32.073Z,4.69
2018-02-02T01:29:32.062Z,4.66
2018-02-02T01:31:24.958Z,4.67
2018-02-02T01:32:24.971Z,4.70
2018-02-02T01:34:17.884Z,4.67
2018-02-02T01:35:17.882Z,4.66
2018-02-02T01:37:10.778Z,4.65
2018-02-02T01:38:10.796Z,4.70
2018-02-02T01:40:03.705Z,4.72
2018-02-02T01:41:03.704Z,4.70
2018-02-02T01:42:56.597Z,4.70
2018-02-02T01:43:56.623Z,4.69
2018-02-02T01:45:49.521Z,4.66
2018-02-02T01:46:49.529Z,4.69
2018-02-02T01:48:42.435Z,4.80
2018-02-02T01:49:42.431Z,4.67
2018-02-02T01:51:35.323Z,4.70
2018-02-02T01:52:35.339Z,4.80
2018-02-02T01:54:28.248Z,4.73
2018-02-02T01:55:28.245Z,4.80
2018-02-02T01:57:21.149Z,4.85
2018-02-02T01:58:21.163Z,4.75
2018-02-02T02:00:14.075Z,4.84
2018-02-02T02:01:14.079Z,4.80
2018-02-02T02:03:06.966Z,4.70
2018-02-02T02:04:06.980Z,4.75
2018-02-02T02:05:59.888Z,4.84
2018-02-02T02:06:59.887Z,4.72
2018-02-02T02:08:52.800Z,4.72
2018-02-02T02:09:52.796Z,4.80
2018-02-02T02:11:45.690Z,4.66
2018-02-02T02:12:45.704Z,4.66
2018-02-02T02:14:38.619Z,4.75
2018-02-02T02:15:38.616Z,4.73
2018-02-02T02:17:31.510Z,4.78
2018-02-02T02:18:31.527Z,4.85
2018-02-02T02:20:24.438Z,4.85
2018-02-02T02:21:24.432Z,4.80
2018-02-02T02:23:17.330Z,4.89
2018-02-02T02:24:17.346Z,4.89
2018-02-02T02:26:10.258Z,4.96
2018-02-02T02:27:10.255Z,4.92
2018-02-02T02:29:03.172Z,4.85
2018-02-02T02:30:03.187Z,4.92
2018-02-02T02:31:56.063Z,4.91
2018-02-02T02:32:56.077Z,4.86
2018-02-02T02:34:48.993Z,4.86
2018-02-02T02:35:48.991Z,4.78
2018-02-02T02:37:41.890Z,4.77
2018-02-02T02:38:41.906Z,4.75
2018-02-02T02:40:34.818Z,4.72
2018-02-02T02:41:34.817Z,4.78
2018-02-02T02:43:27.709Z,4.86
2018-02-02T02:44:27.724Z,4.82
2018-02-02T02:46:20.635Z,4.82
2018-02-02T02:47:20.633Z,4.77
2018-02-02T02:49:13.546Z,4.85
2018-02-02T02:50:13.543Z,4.73
2018-02-02T02:52:06.437Z,4.77
2018-02-02T02:53:06.451Z,4.82
2018-02-02T02:54:59.363Z,4.86
2018-02-02T02:55:59.360Z,4.77
2018-02-02T02:57:52.250Z,4.77
2018-02-02T02:58:52.266Z,4.88
2018-02-02T03:00:45.183Z,4.80
2018-02-02T03:01:45.177Z,4.82
2018-02-02T03:03:38.087Z,4.85
2018-02-02T03:04:38.102Z,4.77
2018-02-02T03:06:31.012Z,4.75
2018-02-02T03:07:31.008Z,4.75
2018-02-02T03:09:23.931Z,4.89
2018-02-02T03:10:23.928Z,4.91
2018-02-02T03:12:16.831Z,4.92
2018-02-02T03:13:16.843Z,4.84
2018-02-02T03:15:09.757Z,4.89
2018-02-02T03:16:09.755Z,4.91
2018-02-02T03:18:02.647Z,4.86
2018-02-02T03:19:02.660Z,4.77
2018-02-02T03:20:55.576Z,4.94
2018-02-02T03:21:55.571Z,4.91
2018-02-02T03:23:48.467Z,4.94
2018-02-02T03:24:48.481Z,4.97
2018-02-02T03:26:41.394Z,4.97
2018-02-02T03:27:41.391Z,4.89
2018-02-02T03:29:34.307Z,4.91
2018-02-02T03:30:34.307Z,4.88
2018-02-02T03:32:27.201Z,4.86
2018-02-02T03:33:27.213Z,4.82
2018-02-02T03:35:20.126Z,4.72
2018-02-02T03:36:20.123Z,4.78
2018-02-02T03:38:13.017Z,4.84
2018-02-02T03:39:13.033Z,4.73
2018-02-02T03:41:05.947Z,4.70
2018-02-02T03:42:05.942Z,4.52
2018-02-02T03:43:58.836Z,4.58
2018-02-02T03:44:58.895Z,4.55
2018-02-02T03:46:51.766Z,4.58
2018-02-02T03:47:51.760Z,4.52
2018-02-02T03:49:44.705Z,4.58
2018-02-02T03:50:44.672Z,4.45
2018-02-02T03:52:37.566Z,4.47
2018-02-02T03:53:37.582Z,4.40
2018-02-02T03:55:30.493Z,4.37
2018-02-02T03:56:30.488Z,4.34
2018-02-02T03:58:23.407Z,4.33
2018-02-02T03:59:23.519Z,4.33
2018-02-02T04:01:16.331Z,4.47
2018-02-02T04:02:16.323Z,4.44
2018-02-02T04:04:09.217Z,4.30
2018-02-02T04:05:09.230Z,4.34
2018-02-02T04:07:02.143Z,4.30
2018-02-02T04:08:02.141Z,4.34
2018-02-02T04:09:55.051Z,4.40
2018-02-02T04:10:55.049Z,4.27
2018-02-02T04:12:47.939Z,4.30
2018-02-02T04:13:47.957Z,4.26
2018-02-02T04:15:40.871Z,4.33
2018-02-02T04:16:40.865Z,4.23
2018-02-02T04:18:33.761Z,4.32
2018-02-02T04:19:33.775Z,4.18
2018-02-02T04:21:26.689Z,4.15
2018-02-02T04:22:26.685Z,4.23
2018-02-02T04:24:19.579Z,4.15
2018-02-02T04:25:19.594Z,4.22
2018-02-02T04:27:12.505Z,4.23
2018-02-02T04:28:12.502Z,4.22
2018-02-02T04:30:05.416Z,4.26
2018-02-02T04:31:05.411Z,4.27
2018-02-02T04:32:58.305Z,4.16
2018-02-02T04:33:58.321Z,4.24
2018-02-02T04:35:51.235Z,4.08
2018-02-02T04:36:51.231Z,4.18
2018-02-02T04:38:44.127Z,4.24
2018-02-02T04:39:44.142Z,4.12
2018-02-02T04:41:37.056Z,4.29
2018-02-02T04:42:37.053Z,4.20
2018-02-02T04:44:29.945Z,4.15
2018-02-02T04:45:29.960Z,4.18
2018-02-02T04:47:22.874Z,4.15
2018-02-02T04:48:22.869Z,4.20
2018-02-02T04:50:15.782Z,4.06
2018-02-02T04:51:15.781Z,4.11
2018-02-02T04:53:08.674Z,4.04
2018-02-02T04:54:08.689Z,4.06
2018-02-02T04:56:01.601Z,4.08
2018-02-02T04:57:01.595Z,4.00
2018-02-02T04:58:54.500Z,4.05
2018-02-02T04:59:54.514Z,4.15
2018-02-02T05:01:47.426Z,4.11
2018-02-02T05:02:47.421Z,4.02
2018-02-02T05:04:40.315Z,4.11
2018-02-02T05:05:40.331Z,4.09
2018-02-02T05:07:33.292Z,4.06
2018-02-02T05:08:33.286Z,4.18
2018-02-02T05:10:26.191Z,4.11
2018-02-02T05:11:26.186Z,4.23
2018-02-02T05:13:19.084Z,4.18
2018-02-02T05:14:19.101Z,4.22
2018-02-02T05:16:12.013Z,4.20
2018-02-02T05:17:12.007Z,4.15
2018-02-02T05:19:04.902Z,4.29
2018-02-02T05:20:04.913Z,4.22
2018-02-02T05:21:57.826Z,4.26
2018-02-02T05:22:57.821Z,4.29
2018-02-02T05:24:50.716Z,4.20
2018-02-02T05:25:50.731Z,4.16
2018-02-02T05:27:43.645Z,4.18
2018-02-02T05:28:43.643Z,4.12
2018-02-02T05:30:36.555Z,4.22
2018-02-02T05:31:36.552Z,4.30
2018-02-02T05:33:29.448Z,4.29
2018-02-02T05:34:29.458Z,4.24
2018-02-02T05:36:22.864Z,4.37
2018-02-02T05:37:22.861Z,4.36
2018-02-02T05:39:15.759Z,4.41
2018-02-02T05:40:15.771Z,4.47
2018-02-02T05:42:08.684Z,4.44
2018-02-02T05:43:08.680Z,4.27
2018-02-02T05:45:01.579Z,4.24
2018-02-02T05:46:01.596Z,4.20
2018-02-02T05:47:54.511Z,4.36
2018-02-02T05:48:54.500Z,4.34
2018-02-02T05:50:47.410Z,4.26
2018-02-02T05:51:47.407Z,4.23
2018-02-02T05:53:40.299Z,4.15
2018-02-02T05:54:40.315Z,4.15
2018-02-02T05:56:33.240Z,4.16
2018-02-02T05:57:33.230Z,4.18
2018-02-02T05:59:26.119Z,4.12
2018-02-02T06:00:26.131Z,4.11
2018-02-02T06:02:19.049Z,4.20
2018-02-02T06:03:19.046Z,4.14
2018-02-02T06:05:11.939Z,4.12
2018-02-02T06:06:11.955Z,4.23
2018-02-02T06:08:04.866Z,4.29
2018-02-02T06:09:04.864Z,4.34
2018-02-02T06:10:57.778Z,4.33
2018-02-02T06:11:57.775Z,4.29
2018-02-02T06:13:50.667Z,4.29
2018-02-02T06:14:50.683Z,4.18
2018-02-02T06:16:43.591Z,4.18
2018-02-02T06:17:43.589Z,4.30
2018-02-02T06:19:36.487Z,4.30
2018-02-02T06:20:36.504Z,4.27
2018-02-02T06:22:29.416Z,4.33
2018-02-02T06:23:29.413Z,4.36
2018-02-02T06:25:22.326Z,4.44
2018-02-02T06:26:22.323Z,4.40
2018-02-02T06:28:15.234Z,4.34
2018-02-02T06:29:15.229Z,4.32
2018-02-02T06:31:08.144Z,4.27
2018-02-02T06:32:08.143Z,4.27
2018-02-02T06:34:01.040Z,4.29
2018-02-02T06:35:01.053Z,4.18
2018-02-02T06:36:53.963Z,4.14
2018-02-02T06:37:53.961Z,4.12
2018-02-02T06:39:46.858Z,4.11
2018-02-02T06:40:46.873Z,4.02
2018-02-02T06:42:39.784Z,3.96
2018-02-02T06:43:39.782Z,3.88
2018-02-02T06:45:32.679Z,3.76
2018-02-02T06:46:32.692Z,3.78
2018-02-02T06:48:25.609Z,3.65
2018-02-02T06:49:25.604Z,3.65
2018-02-02T06:51:18.530Z,3.60
2018-02-02T06:52:18.518Z,3.48
2018-02-02T06:54:11.408Z,3.39
2018-02-02T06:55:11.423Z,3.29
2018-02-02T06:57:04.334Z,3.32
2018-02-02T06:58:04.329Z,3.23
2018-02-02T06:59:57.219Z,3.14
2018-02-02T07:00:57.236Z,3.15
2018-02-02T07:02:50.146Z,3.18
2018-02-02T07:03:50.140Z,3.15
2018-02-02T07:05:43.033Z,3.18
2018-02-02T07:06:43.050Z,3.13
2018-02-02T07:08:35.960Z,3.11
2018-02-02T07:09:35.956Z,3.05
2018-02-02T07:11:28.871Z,3.18
2018-02-02T07:12:28.865Z,3.13
2018-02-02T07:14:21.766Z,3.05
2018-02-02T07:15:21.780Z,3.17
2018-02-02T07:17:14.692Z,3.15
2018-02-02T07:18:14.687Z,3.18
2018-02-02T07:20:07.579Z,3.15
2018-02-02T07:21:07.598Z,3.17
2018-02-02T07:23:00.508Z,3.32
2018-02-02T07:24:00.500Z,3.32
2018-02-02T07:25:53.393Z,3.31
2018-02-02T07:26:53.407Z,3.18
2018-02-02T07:28:46.320Z,3.33
2018-02-02T07:29:46.315Z,3.26
2018-02-02T07:31:39.230Z,3.33
2018-02-02T07:32:39.225Z,3.28
2018-02-02T07:34:32.118Z,3.29
2018-02-02T07:35:32.132Z,3.33
2018-02-02T07:37:25.045Z,3.26
2018-02-02T07:38:25.041Z,3.31
2018-02-02T07:40:17.934Z,3.26
2018-02-02T07:41:17.950Z,3.32
2018-02-02T07:43:10.858Z,3.29
2018-02-02T07:44:10.885Z,3.31
2018-02-02T07:46:03.750Z,3.28
2018-02-02T07:47:03.762Z,3.36
2018-02-02T07:48:56.674Z,3.47
2018-02-02T07:49:56.670Z,3.42
2018-02-02T07:51:49.580Z,3.47
2018-02-02T07:52:49.581Z,3.52
2018-02-02T07:54:42.476Z,3.42
2018-02-02T07:55:42.495Z,3.42
2018-02-02T07:57:35.398Z,3.40
2018-02-02T07:58:35.395Z,3.50
2018-02-02T08:00:28.285Z,3.48
2018-02-02T08:01:28.300Z,3.54
2018-02-02T08:03:21.213Z,3.61
2018-02-02T08:04:21.209Z,3.69
2018-02-02T08:06:14.101Z,3.61
2018-02-02T08:07:14.115Z,3.66
2018-02-02T08:09:07.030Z,3.69
2018-02-02T08:10:07.026Z,3.68
2018-02-02T08:11:59.937Z,3.66
2018-02-02T08:12:59.934Z,3.73
2018-02-02T08:14:52.827Z,3.72
2018-02-02T08:15:52.842Z,3.75
2018-02-02T08:17:45.754Z,3.69
2018-02-02T08:18:45.749Z,3.68
2018-02-02T08:20:38.646Z,3.68
2018-02-02T08:21:38.658Z,3.75
2018-02-02T08:23:31.567Z,3.73
2018-02-02T08:24:31.564Z,3.73
2018-02-02T08:26:24.462Z,3.78
2018-02-02T08:27:24.472Z,3.88
2018-02-02T08:29:17.383Z,3.86
2018-02-02T08:30:17.379Z,3.86
2018-02-02T08:32:10.292Z,3.80
2018-02-02T08:33:10.287Z,3.86
2018-02-02T08:35:03.186Z,3.90
2018-02-02T08:36:03.198Z,3.98
2018-02-02T08:37:56.108Z,3.97
2018-02-02T08:38:56.105Z,4.00
2018-02-02T08:40:49.000Z,4.08
2018-02-02T08:41:49.014Z,4.08
2018-02-02T08:43:41.925Z,4.08
2018-02-02T08:44:41.923Z,4.14
2018-02-02T08:46:34.815Z,4.23
2018-02-02T08:47:34.830Z,4.15
2018-02-02T08:49:27.742Z,4.20
2018-02-02T08:50:27.741Z,4.23
2018-02-02T08:52:20.651Z,4.12
2018-02-02T08:53:20.648Z,4.23
2018-02-02T08:55:13.542Z,4.16
2018-02-02T08:56:13.558Z,4.23
2018-02-02T08:58:06.472Z,4.33
2018-02-02T08:59:06.468Z,4.34
2018-02-02T09:00:59.366Z,4.36
2018-02-02T09:01:59.384Z,4.44
2018-02-02T09:03:52.293Z,4.50
2018-02-02T09:04:52.290Z,4.44
2018-02-02T09:06:45.185Z,4.48
2018-02-02T09:07:45.200Z,4.45
2018-02-02T09:09:38.109Z,4.58
2018-02-02T09:10:38.108Z,4.60
2018-02-02T09:12:31.024Z,4.59
2018-02-02T09:13:31.020Z,4.60
2018-02-02T09:15:23.915Z,4.70
2018-02-02T09:16:23.929Z,4.70
2018-02-02T09:18:16.841Z,4.75
2018-02-02T09:19:16.842Z,4.70
2018-02-02T09:21:09.740Z,4.80
2018-02-02T09:22:09.754Z,4.84
2018-02-02T09:24:02.669Z,4.77
2018-02-02T09:25:02.666Z,4.75
2018-02-02T09:26:55.564Z,4.86
2018-02-02T09:27:55.577Z,4.75
2018-02-02T09:29:48.491Z,4.89
2018-02-02T09:30:48.489Z,4.88
2018-02-02T09:32:41.406Z,4.94
2018-02-02T09:33:41.406Z,4.86
2018-02-02T09:35:34.336Z,4.91
2018-02-02T09:36:34.315Z,4.92
2018-02-02T09:38:27.232Z,4.97
2018-02-02T09:39:27.227Z,4.94
2018-02-02T09:41:20.123Z,5.03
2018-02-02T09:42:20.139Z,5.06
2018-02-02T09:44:13.051Z,5.07
2018-02-02T09:45:13.048Z,5.10
2018-02-02T09:47:05.948Z,5.15
2018-02-02T09:48:05.960Z,5.18
2018-02-02T09:49:58.873Z,5.15
2018-02-02T09:50:58.873Z,5.06
2018-02-02T09:52:51.783Z,5.20
2018-02-02T09:53:51.779Z,5.20
2018-02-02T09:55:44.676Z,5.27
2018-02-02T09:56:44.699Z,5.24
2018-02-02T09:58:37.605Z,5.30
2018-02-02T09:59:37.609Z,5.31
2018-02-02T10:01:30.518Z,5.30
2018-02-02T10:02:30.524Z,5.35
2018-02-02T10:04:23.469Z,5.43
2018-02-02T10:05:23.436Z,5.40
2018-02-02T10:07:17.542Z,5.40
2018-02-02T10:08:16.339Z,5.42
2018-02-02T10:10:09.276Z,5.48
2018-02-02T10:11:09.273Z,5.46
2018-02-02T10:13:02.183Z,5.49
2018-02-02T10:14:02.182Z,5.60
2018-02-02T10:15:55.081Z,5.53
2018-02-02T10:16:55.094Z,5.60
2018-02-02T10:18:48.041Z,5.42
2018-02-02T10:19:48.039Z,5.48
2018-02-02T10:21:40.933Z,5.43
2018-02-02T10:22:40.970Z,5.46
2018-02-02T10:24:33.862Z,5.54
2018-02-02T10:25:33.860Z,5.58
2018-02-02T10:27:26.761Z,5.65
2018-02-02T10:28:26.777Z,5.64
2018-02-02T10:30:19.707Z,5.68
2018-02-02T10:31:19.734Z,5.72
2018-02-02T10:33:12.652Z,5.74
2018-02-02T10:34:12.646Z,5.79
2018-02-02T10:36:05.586Z,5.89
2018-02-02T10:37:05.560Z,5.83
2018-02-02T10:38:58.511Z,5.90
2018-02-02T10:39:58.510Z,5.86
2018-02-02T10:41:51.411Z,5.81
2018-02-02T10:42:51.424Z,5.90
2018-02-02T10:44:44.336Z,5.85
2018-02-02T10:45:44.336Z,5.83
2018-02-02T10:47:37.235Z,5.82
2018-02-02T10:48:37.251Z,5.90
2018-02-02T10:50:30.165Z,5.91
2018-02-02T10:51:30.162Z,5.91
2018-02-02T10:53:23.088Z,5.90
2018-02-02T10:54:23.088Z,5.86
2018-02-02T10:56:16.042Z,5.97
2018-02-02T10:57:16.002Z,5.89
2018-02-02T10:59:08.917Z,5.94
2018-02-02T11:00:08.917Z,5.94
2018-02-02T11:02:01.820Z,6.14
2018-02-02T11:03:01.830Z,6.08
2018-02-02T11:04:54.745Z,6.01
2018-02-02T11:05:54.743Z,6.03
2018-02-02T11:07:47.649Z,6.00
2018-02-02T11:08:47.656Z,5.96
2018-02-02T11:10:40.583Z,6.01
2018-02-02T11:11:40.568Z,5.93
2018-02-02T11:13:33.482Z,6.01
2018-02-02T11:14:33.479Z,5.91
2018-02-02T11:16:26.375Z,5.90
2018-02-02T11:17:26.394Z,5.94
2018-02-02T11:19:19.306Z,6.03
2018-02-02T11:20:19.306Z,6.09
2018-02-02T11:22:12.209Z,6.12
2018-02-02T11:23:12.226Z,6.14
2018-02-02T11:25:05.180Z,6.09
2018-02-02T11:26:05.148Z,6.25
2018-02-02T11:27:58.086Z,6.34
2018-02-02T11:28:58.102Z,6.31
2018-02-02T11:30:51.018Z,6.46
2018-02-02T11:31:51.078Z,6.58
2018-02-02T11:33:43.935Z,6.56
2018-02-02T11:34:43.934Z,6.52
2018-02-02T11:36:36.835Z,6.51
2018-02-02T11:37:36.851Z,6.59
2018-02-02T11:39:29.764Z,6.44
2018-02-02T11:40:29.763Z,6.51
2018-02-02T11:42:22.661Z,6.43
2018-02-02T11:43:22.681Z,6.51
2018-02-02T11:45:15.592Z,6.33
2018-02-02T11:46:15.595Z,6.34
2018-02-02T11:48:08.501Z,6.30
2018-02-02T11:49:08.518Z,6.31
2018-02-02T11:51:01.427Z,6.28
2018-02-02T11:52:01.424Z,6.33
2018-02-02T11:53:54.341Z,6.34
2018-02-02T11:54:54.340Z,6.48
2018-02-02T11:56:47.236Z,6.48
2018-02-02T11:57:47.254Z,6.43
2018-02-02T11:59:40.168Z,6.59
2018-02-02T12:00:40.168Z,6.58
2018-02-02T12:02:33.087Z,6.73
2018-02-02T12:03:33.107Z,6.87
2018-02-02T12:05:26.030Z,6.88
2018-02-02T12:06:26.023Z,6.92
2018-02-02T12:08:18.921Z,6.85
2018-02-02T12:09:18.938Z,6.87
2018-02-02T12:11:11.855Z,6.91
2018-02-02T12:12:11.854Z,6.98
2018-02-02T12:14:04.782Z,7.12
2018-02-02T12:15:04.774Z,7.10
2018-02-02T12:16:57.670Z,7.02
2018-02-02T12:17:57.688Z,7.09
2018-02-02T12:19:50.602Z,7.06
2018-02-02T12:20:50.622Z,7.10
2018-02-02T12:22:43.501Z,6.97
2018-02-02T12:23:43.518Z,6.97
2018-02-02T12:25:36.434Z,6.95
2018-02-02T12:26:36.432Z,6.97
2018-02-02T12:28:29.330Z,7.02
2018-02-02T12:29:29.347Z,7.03
2018-02-02T12:31:22.264Z,6.95
2018-02-02T12:32:22.264Z,7.06
2018-02-02T12:34:15.181Z,7.10
2018-02-02T12:35:15.180Z,7.10
2018-02-02T12:37:08.090Z,7.12
2018-02-02T12:38:08.105Z,7.12
2018-02-02T12:40:01.022Z,7.16
2018-02-02T12:41:01.022Z,7.15
2018-02-02T12:42:53.924Z,7.21
2018-02-02T12:43:53.937Z,7.23
2018-02-02T12:45:46.855Z,7.31
2018-02-02T12:46:46.855Z,7.24
2018-02-02T12:48:39.755Z,7.23
2018-02-02T12:49:39.775Z,7.15
2018-02-02T12:51:32.688Z,7.13
2018-02-02T12:52:32.686Z,7.13
2018-02-02T12:54:25.863Z,7.07
2018-02-02T12:55:25.710Z,7.03
2018-02-02T12:57:19.028Z,7.12
2018-02-02T12:58:19.313Z,7.03
2018-02-02T13:00:11.952Z,7.13
2018-02-02T13:01:12.498Z,6.94
2018-02-02T13:03:05.162Z,6.95
2018-02-02T13:04:05.172Z,7.03
2018-02-02T13:05:58.089Z,6.92
2018-02-02T13:07:00.443Z,6.91
2018-02-02T13:08:50.996Z,6.95
2018-02-02T13:09:51.003Z,7.06
2018-02-02T13:11:43.921Z,6.99
2018-02-02T13:12:43.972Z,7.02
2018-02-02T13:14:36.841Z,7.03
2018-02-02T13:15:36.837Z,7.05
2018-02-02T13:17:29.738Z,7.02
2018-02-02T13:18:29.796Z,7.12
2018-02-02T13:20:22.672Z,7.16
2018-02-02T13:21:22.672Z,7.16
2018-02-02T13:23:15.568Z,7.24
2018-02-02T13:24:15.622Z,7.25
2018-02-02T13:26:08.503Z,7.24
2018-02-02T13:27:08.533Z,7.20
2018-02-02T13:29:01.416Z,7.21
2018-02-02T13:30:01.494Z,7.16
2018-02-02T13:31:54.353Z,7.15
2018-02-02T13:32:54.350Z,7.13
2018-02-02T13:34:47.273Z,7.06
2018-02-02T13:35:47.264Z,7.10
2018-02-02T13:37:40.174Z,7.13
2018-02-02T13:38:40.189Z,7.15
2018-02-02T13:40:33.106Z,7.21
2018-02-02T13:41:33.105Z,7.16
2018-02-02T13:43:26.016Z,7.30
2018-02-02T13:44:26.048Z,7.27
2018-02-02T13:46:18.948Z,7.25
2018-02-02T13:47:18.969Z,7.30
2018-02-02T13:49:11.845Z,7.30
2018-02-02T13:50:11.864Z,7.28
2018-02-02T13:52:04.782Z,7.40
2018-02-02T13:53:04.783Z,7.46
2018-02-02T13:54:57.704Z,7.48
2018-02-02T13:55:57.703Z,7.50
2018-02-02T13:57:50.620Z,7.49
2018-02-02T13:58:50.618Z,7.53
2018-02-02T14:00:43.532Z,7.42
2018-02-02T14:01:43.532Z,7.34
2018-02-02T14:03:36.429Z,7.30
2018-02-02T14:04:36.446Z,7.30
2018-02-02T14:06:29.365Z,7.24
2018-02-02T14:07:29.365Z,7.27
2018-02-02T14:09:22.264Z,7.25
2018-02-02T14:10:22.283Z,7.23
2018-02-02T14:12:15.197Z,7.21
2018-02-02T14:13:15.197Z,7.34
2018-02-02T14:15:08.095Z,7.24
2018-02-02T14:16:08.111Z,7.28
2018-02-02T14:18:01.028Z,7.35
2018-02-02T14:19:01.026Z,7.35
2018-02-02T14:20:53.943Z,7.32
2018-02-02T14:21:53.942Z,7.34
2018-02-02T14:23:46.843Z,7.40
2018-02-02T14:24:46.858Z,7.32
2018-02-02T14:26:39.776Z,7.25
2018-02-02T14:27:39.776Z,7.32
2018-02-02T14:29:32.674Z,7.32
2018-02-02T14:30:32.732Z,7.40
2018-02-02T14:32:25.607Z,7.34
2018-02-02T14:33:25.608Z,7.40
2018-02-02T14:35:18.505Z,7.35
2018-02-02T14:36:18.521Z,7.32
2018-02-02T14:38:11.440Z,7.31
2018-02-02T14:39:11.440Z,7.31
2018-02-02T14:41:04.354Z,7.28
2018-02-02T14:42:04.353Z,7.35
2018-02-02T14:43:57.254Z,7.35
2018-02-02T14:44:57.269Z,7.24
2018-02-02T14:46:50.192Z,7.25
2018-02-02T14:47:50.190Z,7.27
2018-02-02T14:49:43.089Z,7.25
2018-02-02T14:50:43.110Z,7.13
2018-02-02T14:52:36.027Z,7.24
2018-02-02T14:53:36.025Z,7.20
2018-02-02T14:55:28.928Z,7.10
2018-02-02T14:56:28.960Z,7.16
2018-02-02T14:58:21.941Z,7.15
2018-02-02T14:59:21.859Z,7.15
2018-02-02T15:01:14.772Z,7.10
2018-02-02T15:02:14.770Z,7.10
2018-02-02T15:04:07.669Z,7.13
2018-02-02T15:05:07.687Z,7.16
2018-02-02T15:07:00.601Z,7.12
2018-02-02T15:08:00.600Z,7.09
2018-02-02T15:09:54.548Z,7.06
2018-02-02T15:10:54.511Z,7.06
2018-02-02T15:12:47.428Z,7.06
2018-02-02T15:13:47.427Z,6.98
2018-02-02T15:15:40.350Z,7.05
2018-02-02T15:16:40.366Z,7.10
2018-02-02T15:18:33.255Z,6.97
2018-02-02T15:19:33.255Z,6.92
2018-02-02T15:21:26.172Z,6.97
2018-02-02T15:22:26.174Z,7.02
2018-02-02T15:24:19.113Z,6.97
2018-02-02T15:25:19.129Z,6.88
2018-02-02T15:27:12.029Z,6.92
2018-02-02T15:28:12.074Z,6.84
2018-02-02T15:30:04.927Z,6.97
2018-02-02T15:31:05.011Z,6.87
2018-02-02T15:32:57.870Z,6.92
2018-02-02T15:33:57.919Z,6.94
2018-02-02T15:35:50.767Z,6.89
2018-02-02T15:36:50.898Z,6.84
2018-02-02T15:38:43.704Z,6.94
2018-02-02T15:39:43.697Z,6.91
2018-02-02T15:41:36.712Z,6.91
2018-02-02T15:42:36.611Z,6.94
2018-02-02T15:44:29.507Z,6.92
2018-02-02T15:45:29.523Z,6.84
2018-02-02T15:47:22.440Z,6.89
2018-02-02T15:48:22.436Z,6.94
2018-02-02T15:50:15.332Z,6.87
2018-02-02T15:51:15.349Z,6.89
2018-02-02T15:53:08.279Z,6.77
2018-02-02T15:54:08.280Z,6.77
2018-02-02T15:56:01.244Z,6.81
2018-02-02T15:57:01.232Z,6.81
2018-02-02T15:58:54.253Z,6.84
2018-02-02T15:59:54.250Z,6.87
2018-02-02T16:01:47.164Z,6.77
2018-02-02T16:02:47.163Z,6.84
2018-02-02T16:04:40.064Z,6.81
2018-02-02T16:05:40.079Z,6.81
2018-02-02T16:07:32.994Z,6.80
2018-02-02T16:08:32.994Z,6.85
2018-02-02T16:10:25.940Z,6.80
2018-02-02T16:11:25.903Z,6.79
2018-02-02T16:13:18.821Z,6.77
2018-02-02T16:14:18.820Z,6.77
2018-02-02T16:16:11.719Z,6.77
2018-02-02T16:17:11.759Z,6.79
2018-02-02T16:19:04.652Z,6.71
2018-02-02T16:20:09.373Z,6.81
2018-02-02T16:21:57.956Z,6.70
2018-02-02T16:22:57.955Z,6.69
2018-02-02T16:24:50.858Z,6.67
2018-02-02T16:25:50.968Z,6.55
2018-02-02T16:27:43.783Z,6.64
2018-02-02T16:28:43.784Z,6.56
2018-02-02T16:30:36.675Z,6.64
2018-02-02T16:31:36.694Z,6.59
2018-02-02T16:33:29.644Z,6.59
2018-02-02T16:34:29.607Z,6.49
2018-02-02T16:36:22.505Z,6.44
2018-02-02T16:37:22.582Z,6.51
2018-02-02T16:39:15.433Z,6.58
2018-02-02T16:40:15.431Z,6.49
2018-02-02T16:42:08.354Z,6.51
2018-02-02T16:43:08.347Z,6.51
2018-02-02T16:45:01.241Z,6.49
2018-02-02T16:46:01.257Z,6.51
2018-02-02T16:47:54.249Z,6.48
2018-02-02T16:48:54.176Z,6.54
2018-02-02T16:50:47.068Z,6.41
2018-02-02T16:51:47.084Z,6.56
2018-02-02T16:53:39.997Z,6.44
2018-02-02T16:54:40.047Z,6.48
2018-02-02T16:56:32.891Z,6.54
2018-02-02T16:57:32.908Z,6.51
2018-02-02T16:59:25.833Z,6.52
2018-02-02T17:00:25.842Z,6.52
2018-02-02T17:02:18.752Z,6.46
2018-02-02T17:03:18.746Z,6.49
2018-02-02T17:05:11.643Z,6.52
2018-02-02T17:06:11.659Z,6.44
2018-02-02T17:08:04.577Z,6.48
2018-02-02T17:09:04.578Z,6.43
2018-02-02T17:10:57.476Z,6.44
2018-02-02T17:11:57.504Z,6.43
2018-02-02T17:13:50.407Z,6.49
2018-02-02T17:14:50.405Z,6.51
2018-02-02T17:16:43.300Z,6.46
2018-02-02T17:17:43.315Z,6.43
2018-02-02T17:19:36.233Z,6.44
2018-02-02T17:20:36.230Z,6.44
2018-02-02T17:22:29.162Z,6.33
2018-02-02T17:23:29.164Z,6.33
2018-02-02T17:25:22.068Z,6.31
2018-02-02T17:26:22.075Z,6.34
2018-02-02T17:28:14.990Z,6.27
2018-02-02T17:29:14.989Z,6.28
2018-02-02T17:31:07.908Z,6.30
2018-02-02T17:32:07.994Z,6.22
2018-02-02T17:34:00.850Z,6.15
2018-02-02T17:35:00.849Z,6.19
2018-02-02T17:36:53.753Z,6.21
2018-02-02T17:37:53.801Z,6.19
2018-02-02T17:39:46.683Z,6.33
2018-02-02T17:40:46.682Z,6.36
2018-02-02T17:42:39.596Z,6.40
2018-02-02T17:43:39.595Z,6.28
2018-02-02T17:45:32.490Z,6.37
2018-02-02T17:46:32.507Z,6.31
2018-02-02T17:48:25.427Z,6.12
2018-02-02T17:49:25.425Z,6.14
2018-02-02T17:51:18.368Z,6.12
2018-02-02T17:52:18.336Z,5.99
2018-02-02T17:54:11.251Z,5.91
2018-02-02T17:55:11.249Z,5.94
2018-02-02T17:57:04.142Z,5.81
2018-02-02T17:58:04.168Z,5.75
2018-02-02T17:59:57.070Z,5.81
2018-02-02T18:00:57.067Z,5.76
2018-02-02T18:02:50.174Z,5.82
2018-02-02T18:03:50.082Z,5.81
2018-02-02T18:05:43.006Z,5.78
2018-02-02T18:06:42.962Z,5.81
2018-02-02T18:08:35.878Z,5.79
2018-02-02T18:09:35.876Z,5.68
2018-02-02T18:11:28.772Z,5.74
2018-02-02T18:12:28.787Z,5.83
2018-02-02T18:14:21.706Z,5.76
2018-02-02T18:15:21.696Z,5.72
2018-02-02T18:17:14.592Z,5.72
2018-02-02T18:18:14.607Z,5.60
2018-02-02T18:20:07.519Z,5.63
2018-02-02T18:21:07.521Z,5.71
2018-02-02T18:23:00.434Z,5.60
2018-02-02T18:24:00.430Z,5.49
2018-02-02T18:25:53.329Z,5.46
2018-02-02T18:26:53.404Z,5.49
2018-02-02T18:28:46.260Z,5.39
2018-02-02T18:29:46.257Z,5.38
2018-02-02T18:31:39.152Z,5.45
2018-02-02T18:32:39.166Z,5.42
2018-02-02T18:34:32.187Z,5.27
2018-02-02T18:35:32.076Z,5.27
2018-02-02T18:37:24.969Z,5.28
2018-02-02T18:38:24.986Z,5.28
2018-02-02T18:40:17.903Z,5.28
2018-02-02T18:41:17.899Z,5.33
2018-02-02T18:43:10.813Z,5.36
2018-02-02T18:44:10.808Z,5.30
2018-02-02T18:46:03.705Z,5.39
2018-02-02T18:47:03.756Z,5.20
2018-02-02T18:48:56.634Z,5.30
2018-02-02T18:49:56.628Z,5.33
2018-02-02T18:51:49.528Z,5.31
2018-02-02T18:52:49.546Z,5.30
2018-02-02T18:54:42.504Z,5.28
2018-02-02T18:55:42.456Z,5.28
2018-02-02T18:57:35.353Z,5.46
2018-02-02T18:58:35.372Z,5.39
2018-02-02T19:00:28.280Z,5.27
2018-02-02T19:01:28.313Z,5.43
2018-02-02T19:03:21.190Z,5.40
2018-02-02T19:04:21.183Z,5.36
2018-02-02T19:06:14.084Z,5.36
2018-02-02T19:07:14.099Z,5.42
2018-02-02T19:09:07.013Z,5.43
2018-02-02T19:10:07.007Z,5.43